SBCP/CAW METAR and TAF weather

Enter ICAO airport designator
Station Type Date Time Source
SBCP METAR 2019/06/26 20:00 UTC NOAA

SBCP 262000Z 10012KT CAVOK 26/20 Q1014


Station Type Date Time Source
SBCP Decoded METAR 2019/06/26 20:00 UTC NOAA

Campos, Brazil (SBCP) 21-45S 041-20W 11M
Jun 26, 2019 - 04:00 PM EDT / 2019.06.26 2000 UTC
Wind: from the E (100 degrees) at 14 MPH (12 KT):0
Visibility: greater than 7 mile(s):0
Temperature: 78 F (26 C)
Dew Point: 68 F (20 C)
Relative Humidity: 69%
Pressure (altimeter): 29.94 in. Hg (1014 hPa)
ob: SBCP 262000Z 10012KT CAVOK 26/20 Q1014
cycle: 20

Station Type Date Time Source
SBCP TAF 2019/06/26 18:17 UTC NOAA

TAF SBCP 111625Z 2618/2706 04010KT CAVOK TX31/2618Z TN20/2706Z
BECMG 2618/2620 02007KT
BECMG 2620/2622 36007KT
BECMG 2700/2702 34005KT
RMK PGW

Example: see airport list